Home > Products > Valid Products > TAF

000
FTUS41 KAKQ 172300
TAFSBY
TAF
KSBY 172330Z 1800/1824 08011KT P6SM BKN030
     FM180200 08005KT P6SM BKN020
     FM181500 09007KT P6SM BKN040=



000
FTUS41 KAKQ 172300
TAFECG
TAF
KECG 172330Z 1800/1824 04013KT P6SM BKN020
     FM180500 04009KT P6SM BKN020
     FM181600 04013KT P6SM SCT020 BKN040=



000
FTUS41 KAKQ 172300
TAFORF
TAF
KORF 172330Z 1800/1824 05008KT P6SM BKN025
     FM180700 05008KT P6SM BKN020
     FM181600 04010KT P6SM SCT020 BKN040=



000
FTUS41 KAKQ 172300
TAFRIC
TAF
KRIC 172330Z 1800/1824 07005KT P6SM SCT050
     FM180900 05004KT P6SM BKN030
     FM181500 08007KT P6SM SCT040 BKN200=



000
FTUS41 KAKQ 172300
TAFPHF
TAF
KPHF 172330Z 1800/1824 06008KT P6SM BKN030
     FM180900 04006KT P6SM BKN020
     FM181500 05008KT P6SM SCT030 BKN050=



000
FTUS41 KAKQ 171700
TAFRIC
TAF
KRIC 171727Z 1718/1818 04006G15KT P6SM SCT250
     FM180000 07005KT P6SM SCT050
     FM180700 05004KT P6SM BKN020
     FM181500 06007KT P6SM SCT040 BKN200=



000
FTUS41 KAKQ 171700
TAFSBY
TAF
KSBY 171727Z 1718/1818 09008G18KT P6SM BKN030
     FM180200 08005KT P6SM BKN020
     FM181500 09007KT P6SM BKN040=



000
FTUS41 KAKQ 171700
TAFORF
TAF
KORF 171727Z 1718/1818 06017G22KT P6SM SCT030
     FM180000 05008KT P6SM BKN030
     FM180700 05008KT P6SM BKN020
     FM181600 04010KT P6SM SCT020 BKN040=



000
FTUS41 KAKQ 171700
TAFPHF
TAF
KPHF 171727Z 1718/1818 05009G17KT P6SM SCT030
     FM180000 06008KT P6SM BKN030
     FM180900 04006KT P6SM BKN020
     FM181500 05008KT P6SM SCT030 BKN050=



000
FTUS41 KAKQ 171700
TAFECG
TAF
KECG 171727Z 1718/1818 02015KT P6SM SCT030
     FM180100 04013KT P6SM BKN030
     FM180800 03009KT P6SM BKN020
     FM181600 04013KT P6SM SCT020 BKN040=



000
FTUS41 KAKQ 171100
TAFRIC
TAF
KRIC 171131Z 1712/1812 04005KT P6SM SKC
     FM171500 08008KT P6SM SCT040
     FM180000 07005KT P6SM FEW040
     FM180900 05004KT P6SM BKN020=



000
FTUS41 KAKQ 171100
TAFPHF
TAF
KPHF 171131Z 1712/1812 04010KT P6SM SCT035
     FM171500 06012G18KT P6SM BKN035
     FM180000 06008KT P6SM BKN035
     FM180900 04006KT P6SM BKN025=



000
FTUS41 KAKQ 171100
TAFECG
TAF
KECG 171131Z 1712/1812 03012G18KT P6SM SCT035
     FM171500 04016G23KT P6SM BKN035
     FM180000 04013KT P6SM BKN035
     FM180900 03009KT P6SM BKN025=



000
FTUS41 KAKQ 171100
TAFORF
TAF
KORF 171131Z 1712/1812 04014G21KT P6SM SCT035
     FM171500 05015G23KT P6SM BKN035
     FM180000 05012KT P6SM BKN035
     FM180900 05008KT P6SM BKN025=



000
FTUS41 KAKQ 171100
TAFSBY
TAF
KSBY 171131Z 1712/1812 08005KT P6SM SCT035
     FM171500 08011KT P6SM BKN035
     FM180000 08007KT P6SM BKN035
     FM180900 04004KT P6SM BKN020=



000
FTUS41 KAKQ 170500
TAFECG
TAF
KECG 170538Z 1706/1806 04012KT P6SM SKC
     FM170900 04012G18KT P6SM SCT030
     FM171300 04016G23KT P6SM BKN030
     FM180000 04013KT P6SM BKN030=



000
FTUS41 KAKQ 170500
TAFPHF
TAF
KPHF 170538Z 1706/1806 05005KT P6SM SKC
     FM171200 06010KT P6SM SCT035
     FM171500 07012G18KT P6SM BKN030
     FM180000 06008KT P6SM SCT030=



000
FTUS41 KAKQ 170500
TAFORF
TAF
KORF 170538Z 1706/1806 06011G16KT P6SM SKC
     FM170900 06012G18KT P6SM SCT035
     FM171200 06014G21KT P6SM BKN030
     FM171500 06015G22KT P6SM BKN030
     FM180000 05013KT P6SM SCT030=



000
FTUS41 KAKQ 170500
TAFRIC
TAF
KRIC 170538Z 1706/1806 05005KT P6SM SKC
     FM171200 07008KT P6SM SKC
     FM171500 08008KT P6SM SCT035
     FM180000 07005KT P6SM SCT035=



000
FTUS41 KAKQ 170500
TAFSBY
TAF
KSBY 170538Z 1706/1806 08004KT P6SM SKC
     FM171200 08008KT P6SM SCT035
     FM171500 08012KT P6SM BKN035
     FM180000 08007KT P6SM SCT035=



000
FTUS41 KAKQ 170200 AAA
TAFECG
TAF AMD
KECG 170251Z 1703/1724 04012KT P6SM SKC
     FM170500 04012KT P6SM SCT030
     FM171200 05015G23KT P6SM BKN030=



000
FTUS41 KAKQ 162300 RRA
TAFRIC
TAF
KRIC 162342Z 1700/1724 06005KT P6SM SKC
     FM171200 07010KT P6SM SKC
     FM171500 07012KT P6SM SCT050=



000
FTUS41 KAKQ 162300 RRA
TAFORF
TAF
KORF 162342Z 1700/1724 04011KT P6SM SKC
     FM170700 06010KT P6SM SCT040
     FM171200 05014G21KT P6SM BKN040
     FM171500 06015G22KT P6SM BKN030=



000
FTUS41 KAKQ 162300 RRA
TAFSBY
TAF
KSBY 162342Z 1700/1724 06008KT P6SM SKC
     FM171300 08012G18KT P6SM SKC
     FM171800 08012G18KT P6SM BKN040=



000
FTUS41 KAKQ 162300 RRA
TAFPHF
TAF
KPHF 162342Z 1700/1724 04008KT P6SM SKC
     FM171200 06011G18KT P6SM SCT040
     FM171500 07014G20KT P6SM BKN040=



000
FTUS41 KAKQ 162300 RRA
TAFECG
TAF
KECG 162342Z 1700/1724 02015KT P6SM SKC
     FM170500 04012KT P6SM SCT030
     FM171200 05015G23KT P6SM BKN030=



000
FTUS41 KAKQ 161700
TAFSBY
TAF
KSBY 161729Z 1618/1718 35011G18KT P6SM SKC
     FM162000 01013G19KT P6SM SKC
     FM162200 04013G19KT P6SM SKC
     FM170000 06008KT P6SM SKC
     FM171300 08012G18KT P6SM SKC=



000
FTUS41 KAKQ 161700
TAFECG
TAF
KECG 161729Z 1618/1718 36014G22KT P6SM SKC
     FM162000 02015G22KT P6SM SKC
     FM170100 03013KT P6SM SKC
     FM171400 05015G23KT P6SM BKN030=



000
FTUS41 KAKQ 161700
TAFRIC
TAF
KRIC 161729Z 1618/1718 01010G18KT P6SM SKC
     FM162100 03008KT P6SM SKC
     FM170000 06005KT P6SM SKC
     FM171200 07010KT P6SM SKC=



000
FTUS41 KAKQ 161700
TAFPHF
TAF
KPHF 161729Z 1618/1718 02011G18KT P6SM SKC
     FM162200 04012KT P6SM SKC
     FM170100 06007KT P6SM SKC
     FM171400 06011G18KT P6SM SCT040=



000
FTUS41 KAKQ 161700
TAFORF
TAF
KORF 161729Z 1618/1718 03013G20KT P6SM SKC
     FM170000 04011KT P6SM SKC
     FM171200 05014G21KT P6SM BKN040=



000
FTUS41 KAKQ 161100
TAFRIC
TAF
KRIC 161139Z 1612/1712 35013G20KT P6SM SKC
     FM161700 01010G18KT P6SM SKC
     FM162100 03008KT P6SM SKC
     FM170000 06005KT P6SM SKC=



000
FTUS41 KAKQ 161100
TAFPHF
TAF
KPHF 161139Z 1612/1712 35013G20KT P6SM SKC
     FM161600 02013G20KT P6SM SKC
     FM161900 04011G18KT P6SM SKC
     FM170000 06009KT P6SM SKC
     FM171000 06006KT P6SM SCT040=



000
FTUS41 KAKQ 161100
TAFORF
TAF
KORF 161139Z 1612/1712 35018G28KT P6SM SCT040
     FM161600 01015G23KT P6SM SKC
     FM161900 03013G20KT P6SM SKC
     FM170000 04011KT P6SM SKC
     FM170900 05012KT P6SM BKN040=



000
FTUS41 KAKQ 161100
TAFECG
TAF
KECG 161139Z 1612/1712 34015G24KT P6SM SKC
     FM161600 36014G22KT P6SM SKC
     FM161900 02013G20KT P6SM SKC
     FM170000 04014KT P6SM SKC
     FM170600 04012KT P6SM BKN040=



000
FTUS41 KAKQ 161100
TAFSBY
TAF
KSBY 161139Z 1612/1712 34013G20KT P6SM SKC
     FM161700 01011G18KT P6SM SKC
     FM170000 06009KT P6SM SKC=



000
FTUS41 KAKQ 160800 AAA
TAFECG
TAF AMD
KECG 160813Z 1608/1706 34020G30KT P6SM SCT035
     FM161200 01019G27KT P6SM SKC
     FM161800 03016G23KT P6SM SKC
     FM170000 04014KT P6SM BKN030=



000
FTUS41 KAKQ 160800 AAA
TAFPHF
TAF AMD
KPHF 160811Z 1608/1706 35014G25KT P6SM SKC
     FM161200 02015G25KT P6SM SKC
     FM161800 05013G20KT P6SM SKC
     FM170000 06009KT P6SM SKC=



000
FTUS41 KAKQ 160800 AAA
TAFORF
TAF AMD
KORF 160810Z 1608/1706 36020G30KT P6SM SKC
     FM161200 02020G30KT P6SM SKC
     FM161800 05015G23KT P6SM SKC
     FM170000 05013KT P6SM SKC=



000
FTUS41 KAKQ 160800 AAA
TAFSBY
TAF AMD
KSBY 160809Z 1608/1706 33013G22KT P6SM SKC
     FM161200 36015G23KT P6SM SKC
     FM161800 02012G20KT P6SM SKC
     FM170000 06009KT P6SM SKC=



000
FTUS41 KAKQ 160800 AAA
TAFRIC
TAF AMD
KRIC 160807Z 1608/1706 35013G22KT P6SM SKC
     FM161200 02014G22KT P6SM SKC
     FM161800 04010KT P6SM SKC
     FM170000 07005KT P6SM SKC=



000
FTUS41 KAKQ 160500 RRA
TAFSBY
TAF
KSBY 160542Z 1606/1706 33013G22KT 6SM -RA BR BKN010 OVC050
     FM160700 33013G22KT P6SM SCT050
     FM161200 36015G23KT P6SM SKC
     FM161800 02012G20KT P6SM SKC
     FM170000 06009KT P6SM SKC=



000
FTUS41 KAKQ 160500 RRA
TAFPHF
TAF
KPHF 160542Z 1606/1706 35013G22KT P6SM SCT020 BKN050
     FM160700 35013G22KT P6SM SCT050
     FM161200 02015G25KT P6SM SKC
     FM161800 05013G20KT P6SM SKC
     FM170000 06009KT P6SM SKC=



000
FTUS41 KAKQ 160500 RRA
TAFORF
TAF
KORF 160542Z 1606/1706 36022G32KT P6SM -RA SCT015 BKN050
     FM160700 36022G32KT P6SM SCT050
     FM161200 02020G30KT P6SM SKC
     FM161800 05015G23KT P6SM SKC
     FM170000 05013KT P6SM SKC=



000
FTUS41 KAKQ 160500 RRA
TAFECG
TAF
KECG 160542Z 1606/1706 34023G32KT P6SM -RA BKN015 OVC050
     FM160700 34022G30KT P6SM SCT050
     FM161200 01019G27KT P6SM SKC
     FM161800 03016G23KT P6SM SKC
     FM170000 04014KT P6SM BKN030=



000
FTUS41 KAKQ 160500 RRA
TAFRIC
TAF
KRIC 160542Z 1606/1706 35014G23KT P6SM SCT050
     FM161200 02014G22KT P6SM SKC
     FM161800 04010KT P6SM SKC
     FM170000 07005KT P6SM SKC=



000
FTUS41 KAKQ 160400 AAB
TAFORF
TAF AMD
KORF 160411Z 1604/1624 35020G32KT 5SM -RA BR BKN015 OVC050
      TEMPO 1604/1606 2SM RA BR OVC009
     FM160600 01020G30KT P6SM BKN035
     FM161000 03015G25KT P6SM SKC=



000
FTUS41 KAKQ 160300 AAA
TAFPHF
TAF AMD
KPHF 160321Z 1603/1624 01015G25KT 4SM -RA BR BKN012 OVC040
     FM160400 36017G25KT P6SM OVC030
     FM160600 35015G25KT P6SM BKN040
     FM161000 35014G25KT P6SM SKC=



000
FTUS41 KAKQ 160300 AAA
TAFORF
TAF AMD
KORF 160319Z 1603/1624 35023G38KT 3SM RA BR BKN012 OVC040
      TEMPO 1603/1604 1SM RA BR OVC009
     FM160400 01024G34KT P6SM OVC025
     FM160600 01020G30KT P6SM BKN035
     FM161000 03015G25KT P6SM SKC=



000
FTUS41 KAKQ 160300 AAA
TAFRIC
TAF AMD
KRIC 160307Z 1603/1624 36014G22KT P6SM BKN040
     FM160800 35012KT P6SM SCT250
     FM161400 02014G20KT P6SM FEW250=



000
FTUS41 KAKQ 160200 AAA
TAFSBY
TAF AMD
KSBY 160253Z 1603/1624 33017G26KT 4SM -RA BR BKN012 OVC040
     FM160600 35016G22KT P6SM SCT040 OVC150
     FM161400 01015G22KT P6SM FEW200=



000
FTUS41 KAKQ 152300
TAFORF
TAF
KORF 152321Z 1600/1624 35022G32KT 3SM -SHRA BR OVC015
      TEMPO 1600/1601 18014G22KT 1SM +SHRA OVC007
     FM160400 01024G34KT P6SM OVC025
     FM160600 01020G30KT P6SM BKN035
     FM161000 03015G25KT P6SM SKC=



000
FTUS41 KAKQ 152300
TAFRIC
TAF
KRIC 152321Z 1600/1624 35018G26KT 4SM -RA BR BKN012
      TEMPO 1600/1603 2SM -RA BR BKN008
     FM160300 35014G20KT P6SM SCT040
     FM160800 35012KT P6SM SCT250
     FM161400 02014G20KT P6SM FEW250=



000
FTUS41 KAKQ 152300
TAFECG
TAF
KECG 152321Z 1600/1624 18015G24KT P6SM OVC120
      TEMPO 1601/1604 36022G28KT 2SM +SHRA OVC007
     FM160400 35022G32KT P6SM OVC025
     FM160700 01018G28KT P6SM BKN035
     FM161000 02013G23KT P6SM SKC=



000
FTUS41 KAKQ 152300
TAFSBY
TAF
KSBY 152321Z 1600/1624 34025G32KT 2SM -SHRA BR BKN007 OVC020
     FM160300 34020G30KT P6SM OVC020
     FM160600 35016G22KT P6SM SCT040 OVC150
     FM161400 01015G22KT P6SM FEW200=



000
FTUS41 KAKQ 152300
TAFPHF
TAF
KPHF 152321Z 1600/1624 36020G30KT 2SM -SHRA BR OVC012
     FM160300 35022G32KT P6SM OVC030
     FM160600 35015G25KT P6SM BKN040
     FM161000 35014G25KT P6SM SKC=



000
FTUS41 KAKQ 152000 AAB
TAFRIC
TAF AMD
KRIC 152058Z 1521/1618 36020G28KT 5SM -SHRA BR SCT015 BKN030
      TEMPO 1521/1523 19020G28KT 2SM -SHRA BR BKN015
     FM152300 35022G32KT 4SM -RA BR BKN030
     FM160500 35014G20KT P6SM SCT040
     FM160800 35011KT P6SM SCT250=



000
FTUS41 KAKQ 152000 AAA
TAFRIC
TAF AMD
KRIC 152025Z 1520/1618 19020G28KT 5SM -SHRA BR SCT015 BKN030
     FM152300 35022G32KT P6SM BKN030
     FM160500 35014G20KT P6SM SCT040
     FM160800 35011KT P6SM SCT250=



000
FTUS41 KAKQ 151700
TAFRIC
TAF
KRIC 151734Z 1518/1618 19015KT P6SM VCSH SCT016 BKN070
     FM151930 33020G28KT 5SM -SHRA BR OVC015
     FM160100 35022G32KT P6SM BKN030
     FM160500 35014G20KT P6SM SCT040
     FM160800 35011KT P6SM SCT250=



000
FTUS41 KAKQ 151700
TAFPHF
TAF
KPHF 151734Z 1518/1618 20013G19KT P6SM VCSH SCT030 OVC060
     FM152100 33020G30KT 4SM -SHRA BR OVC012
      TEMPO 1521/1523 2SM +SHRA OVC007
     FM160200 35022G32KT P6SM OVC030
     FM160600 35015G25KT P6SM BKN040
     FM161000 35014G25KT P6SM SKC=



000
FTUS41 KAKQ 151700
TAFORF
TAF
KORF 151734Z 1518/1618 19012G20KT P6SM SCT025 OVC050
     FM152000 20014G23KT P6SM VCSH OVC020
      TEMPO 1521/1523 3SM SHRA OVC012
     FM152300 35022G32KT 5SM -SHRA BR OVC015
      TEMPO 1523/1601 2SM +SHRA OVC007
     FM160300 01024G34KT P6SM OVC025
     FM160600 01020G30KT P6SM BKN035
     FM161000 02015G25KT P6SM SKC=



000
FTUS41 KAKQ 151700
TAFSBY
TAF
KSBY 151734Z 1518/1618 17011G20KT P6SM VCSH SCT007 OVC090
     FM152200 32020G28KT 4SM -SHRA BR SCT007 OVC020
      TEMPO 1522/1524 2SM SHRA OVC007
     FM160200 34020G30KT P6SM OVC025
     FM160600 35016G22KT P6SM SCT040=



000
FTUS41 KAKQ 151700
TAFECG
TAF
KECG 151734Z 1518/1618 20012G20KT P6SM SCT012 BKN040
     FM152100 21010G21KT P6SM VCSH BKN030
      TEMPO 1522/1523 3SM SHRA OVC015
     FM152300 33021G30KT 5SM -SHRA BR OVC012
      TEMPO 1523/1602 2SM +SHRA OVC007
     FM160400 35022G32KT P6SM OVC025
     FM160700 01018G28KT P6SM BKN035
     FM161000 02013G23KT P6SM SKC=



000
FTUS41 KAKQ 151500 AAA
TAFPHF
TAF AMD
KPHF 151519Z 1515/1612 20011G18KT 4SM -RA OVC100
     FM151600 20018G28KT P6SM BKN035
     FM151800 20018G28KT P6SM VCSH OVC025
     FM152100 33020G30KT 2SM +SHRA BR OVC010
     FM160000 35022G32KT P6SM OVC030
     FM160600 35015G25KT P6SM BKN040=



000
FTUS41 KAKQ 151500 AAA
TAFORF
TAF AMD
KORF 151518Z 1515/1612 24015G26KT 1SM +RA BR SCT013 OVC020
     FM151630 21020G30KT P6SM OVC025
     FM152000 20018G28KT P6SM VCSH OVC020
     FM152200 35022G32KT 2SM +SHRA BR OVC010
     FM160100 01024G34KT 6SM BR OVC025
     FM160600 01020G30KT P6SM BKN035=



000
FTUS41 KAKQ 151500 AAA
TAFSBY
TAF AMD
KSBY 151516Z 1515/1612 18015G23KT 5SM -RA OVC008
     FM151700 19015G23KT P6SM SCT008 OVC020
     FM152000 19016G25KT P6SM VCSH OVC015
     FM152100 32020G28KT 2SM +SHRA BR OVC007
     FM160000 34020G30KT P6SM OVC025
     FM160700 35016KT P6SM SCT040=



000
FTUS41 KAKQ 151500 AAA
TAFRIC
TAF AMD
KRIC 151512Z 1515/1612 18014G21KT P6SM BKN013 OVC100
     FM151700 20017G27KT P6SM VCSH SCT020 OVC035
     FM151900 33020G28KT 2SM +SHRA BR OVC015
     FM152100 33020G30KT 5SM -SHRA BR OVC015
     FM160000 35022G32KT P6SM BKN030
     FM160600 35015KT P6SM SCT040=



000
FTUS41 KAKQ 151100
TAFPHF
TAF
KPHF 151123Z 1512/1612 19014G20KT P6SM BKN015 OVC035
      TEMPO 1513/1515 2SM +SHRA
     FM151630 20018G28KT P6SM BKN035
     FM152200 33020G30KT 2SM +SHRA BR OVC010
     FM160100 35022G32KT P6SM OVC030
     FM160600 35015G25KT P6SM BKN040=



000
FTUS41 KAKQ 151100
TAFECG
TAF
KECG 151123Z 1512/1612 19015G22KT P6SM OVC015
      TEMPO 1513/1515 2SM +TSRA BKN015CB
     FM151630 21018G28KT P6SM BKN040
     FM152300 33021G30KT 2SM +SHRA BR OVC010
     FM160200 35022G32KT 6SM BR OVC025=



000
FTUS41 KAKQ 151100
TAFORF
TAF
KORF 151123Z 1512/1612 19014G22KT P6SM BKN015 OVC035
      TEMPO 1513/1515 2SM TSRA BKN015CB
     FM151630 21020G30KT P6SM BKN035
     FM152200 35022G32KT 2SM +SHRA BR OVC010
     FM160100 01024G34KT 6SM BR OVC025
     FM160600 01020G30KT P6SM BKN035=



000
FTUS41 KAKQ 151100
TAFSBY
TAF
KSBY 151123Z 1512/1612 18014G22KT 6SM -SHRA BKN008 OVC025
     FM151500 18019G28KT 2SM SHRA BR SCT007 OVC015
     FM152200 32020G28KT 2SM +SHRA BR OVC007
     FM160200 34020G30KT P6SM OVC025
     FM160700 35016KT P6SM SCT040=



000
FTUS41 KAKQ 151100
TAFRIC
TAF
KRIC 151123Z 1512/1612 18015G22KT 5SM SHRA BR OVC015
      TEMPO 1512/1514 2SM +SHRA BR BKN007
     FM151600 20017G27KT P6SM VCSH SCT020 OVC035
     FM152100 33020G28KT 2SM +SHRA BR OVC015
     FM160000 35022G32KT P6SM BKN030
     FM160600 35015KT P6SM SCT040=



000
FTUS41 KAKQ 150500 RRA
TAFRIC
TAF
KRIC 150546Z 1506/1606 18014KT P6SM BKN025 OVC080
     FM151030 19015G22KT 5SM SHRA BR BKN007 OVC015
     FM151600 22016G25KT 4SM -SHRA BR SCT007 OVC020
     FM152200 35018G28KT 2SM SHRA BR OVC007
     FM160100 35015G25KT P6SM BKN030=



000
FTUS41 KAKQ 150500 RRA
TAFORF
TAF
KORF 150546Z 1506/1606 18014G20KT P6SM BKN015 OVC035
     FM151300 18020G30KT P6SM VCSH SCT007 OVC015
     FM152200 35023G32KT 2SM SHRA BR OVC010
     FM160200 01020G30KT P6SM OVC025=



000
FTUS41 KAKQ 150500 RRA
TAFPHF
TAF
KPHF 150546Z 1506/1606 18013KT P6SM OVC015
     FM151200 18018G28KT P6SM VCSH SCT007 OVC015
     FM152200 34020G30KT 2SM SHRA BR OVC009
     FM160200 35018G28KT P6SM OVC025=



000
FTUS41 KAKQ 150500 RRA
TAFECG
TAF
KECG 150546Z 1506/1606 17014G20KT 2SM SHRA BR OVC015
     FM150630 19016G25KT P6SM OVC015
     FM151800 19018G28KT P6SM VCSH OVC025
     FM152200 34021G30KT 2SM SHRA BR OVC007
     FM160200 35018G28KT P6SM OVC025=



000
FTUS41 KAKQ 150500 RRA
TAFSBY
TAF
KSBY 150546Z 1506/1606 17014G20KT P6SM BKN035 OVC100
     FM151000 19014G22KT 5SM -SHRA BKN008 OVC025
     FM151600 18019G28KT 3SM -SHRA BR SCT007 OVC015
     FM152200 33020G30KT 2SM SHRA BR OVC007
     FM160200 34018G28KT P6SM OVC025=



    US Dept of Commerce
    National Oceanic and Atmospheric Administration
    National Weather Service
    1325 East West Highway
    Silver Spring, MD 20910
    Page Author: NWS Internet Services Team
Disclaimer
Information Quality
Credits
Glossary
Privacy Policy
Freedom of Information Act (FOIA)
About Us
Career Opportunities